This is the latest recevied weather packets stored in our database for station/object KI7JYE. If no packets are shown the sender has not sent any weather packets the latest 10 day(s).
| Time | Temp. | Humidity | Pressure | Rain* | Wind** | Luminosity | Snow |
|---|---|---|---|---|---|---|---|
| 1777761015 | 20.56° C | 61% | 1011.6 hPa | 0 mm | - | 376 W/m² | - |
| 1777760409 | 20.56° C | 62% | 1011.7 hPa | 0 mm | - | 492 W/m² | - |
| 1777760104 | 20.56° C | 61% | 1011.8 hPa | 0 mm | - | 476 W/m² | - |
| 1777759804 | 20.56° C | 62% | 1011.7 hPa | 0 mm | - | 491 W/m² | - |
| 1777758892 | 20.56° C | 63% | 1012 hPa | 0 mm | - | 555 W/m² | - |
| 1777757679 | 19.44° C | 66% | 1012.2 hPa | 0 mm | - | 652 W/m² | - |
| 1777757378 | 18.33° C | 70% | 1012.5 hPa | 0 mm | - | 521 W/m² | - |
| 1777757076 | 18.89° C | 69% | 1012.4 hPa | 0 mm | - | 425 W/m² | - |
| 1777756773 | 17.78° C | 69% | 1012.4 hPa | 0 mm | - | 301 W/m² | - |
| 1777756469 | 18.33° C | 69% | 1012.3 hPa | 0 mm | - | 303 W/m² | - |
| 1777756166 | 18.89° C | 67% | 1012.6 hPa | 0 mm | - | 401 W/m² | - |
| 1777755863 | 18.89° C | 67% | 1012.7 hPa | 0 mm | - | 526 W/m² | - |
| 1777755560 | 20° C | 66% | 1012.7 hPa | 0 mm | - | 557 W/m² | - |
| 1777754954 | 18.33° C | 66% | 1012.8 hPa | 0 mm | - | 515 W/m² | - |
| 1777754349 | 20° C | 63% | 1013 hPa | 0 mm | - | 398 W/m² | - |
| 1777754046 | 17.78° C | 67% | 1013 hPa | 0 mm | - | 651 W/m² | - |
| 1777753741 | 18.89° C | 67% | 1013.2 hPa | 0 mm | - | 746 W/m² | - |
| 1777753136 | 19.44° C | 64% | 1013.4 hPa | 0 mm | - | 378 W/m² | - |
| 1777752529 | 17.78° C | 67% | 1013.5 hPa | 0 mm | - | 656 W/m² | - |
| 1777751923 | 18.33° C | 68% | 1013.7 hPa | 0 mm | - | 552 W/m² | - |
| 1777751619 | 17.78° C | 69% | 1013.9 hPa | 0 mm | - | 456 W/m² | - |
| 1777751316 | 17.22° C | 69% | 1013.8 hPa | 0 mm | - | 697 W/m² | - |
| 1777749496 | 15.56° C | 77% | 1014.1 hPa | 0 mm | - | 722 W/m² | - |
| 1777748891 | 14.44° C | 78% | 1014.6 hPa | 0 mm | - | 731 W/m² | - |
| 1777747069 | 12.78° C | 83% | 1014.8 hPa | 0 mm | - | 171 W/m² | - |
* Rain latest hour (hover to see other rain measurements)
** Current wind speed in m/s (hover to see current wind gust speed)